sensor_id;sensor_type;location;lat;lon;timestamp;pressure;altitude;pressure_sealevel;temperature;humidity
62712;BME280;48772;55.586;37.730;2023-07-31T00:00:03;98467.47;;;17.16;100.00
62712;BME280;48772;55.586;37.730;2023-07-31T00:02:32;98419.19;;;16.94;100.00
62712;BME280;48772;55.586;37.730;2023-07-31T00:04:58;98487.13;;;17.38;100.00
62712;BME280;48772;55.586;37.730;2023-07-31T00:07:24;98462.13;;;17.23;100.00
62712;BME280;48772;55.586;37.730;2023-07-31T00:09:50;98500.06;;;17.42;100.00
62712;BME280;48772;55.586;37.730;2023-07-31T00:12:16;98486.47;;;17.36;100.00
62712;BME280;48772;55.586;37.730;2023-07-31T00:14:42;98418.66;;;16.84;100.00
62712;BME280;48772;55.586;37.730;2023-07-31T00:17:08;98476.75;;;17.14;100.00
62712;BME280;48772;55.586;37.730;2023-07-31T00:19:35;98497.78;;;17.25;100.00
62712;BME280;48772;55.586;37.730;2023-07-31T00:22:12;98424.50;;;16.66;100.00
62712;BME280;48772;55.586;37.730;2023-07-31T00:24:39;98414.28;;;16.62;100.00
62712;BME280;48772;55.586;37.730;2023-07-31T00:27:09;98475.06;;;16.92;100.00
62712;BME280;48772;55.586;37.730;2023-07-31T00:29:35;98505.88;;;17.04;100.00
62712;BME280;48772;55.586;37.730;2023-07-31T00:32:11;98417.03;;;16.47;100.00
62712;BME280;48772;55.586;37.730;2023-07-31T00:34:38;98425.75;;;16.49;100.00
62712;BME280;48772;55.586;37.730;2023-07-31T00:37:05;98439.25;;;16.56;100.00
62712;BME280;48772;55.586;37.730;2023-07-31T00:39:33;98455.22;;;16.57;100.00
62712;BME280;48772;55.586;37.730;2023-07-31T00:41:59;98485.72;;;16.79;100.00
62712;BME280;48772;55.586;37.730;2023-07-31T00:44:25;98517.66;;;16.82;100.00
62712;BME280;48772;55.586;37.730;2023-07-31T00:46:53;98511.66;;;16.65;100.00
62712;BME280;48772;55.586;37.730;2023-07-31T00:49:20;98501.38;;;16.54;100.00
62712;BME280;48772;55.586;37.730;2023-07-31T00:51:49;98494.41;;;16.60;100.00
62712;BME280;48772;55.586;37.730;2023-07-31T00:54:15;98499.19;;;16.64;100.00
62712;BME280;48772;55.586;37.730;2023-07-31T00:56:45;98501.81;;;16.72;100.00
62712;BME280;48772;55.586;37.730;2023-07-31T00:59:11;98473.88;;;16.59;100.00
62712;BME280;48772;55.586;37.730;2023-07-31T01:01:37;98487.69;;;16.70;100.00
62712;BME280;48772;55.586;37.730;2023-07-31T01:04:04;98506.53;;;16.70;100.00
62712;BME280;48772;55.586;37.730;2023-07-31T01:06:43;98483.34;;;16.55;100.00
62712;BME280;48772;55.586;37.730;2023-07-31T01:09:28;98497.91;;;16.60;100.00
62712;BME280;48772;55.586;37.730;2023-07-31T01:12:03;98487.81;;;16.48;100.00
62712;BME280;48772;55.586;37.730;2023-07-31T01:14:30;98492.19;;;16.49;100.00
62712;BME280;48772;55.586;37.730;2023-07-31T01:16:56;98499.13;;;16.58;100.00
62712;BME280;48772;55.586;37.730;2023-07-31T01:19:24;98454.75;;;16.39;100.00
62712;BME280;48772;55.586;37.730;2023-07-31T01:24:44;98499.00;;;16.66;100.00
62712;BME280;48772;55.586;37.730;2023-07-31T01:27:22;98480.47;;;16.56;100.00
62712;BME280;48772;55.586;37.730;2023-07-31T01:30:22;98453.47;;;16.35;100.00
62712;BME280;48772;55.586;37.730;2023-07-31T01:32:51;98493.81;;;16.64;100.00
62712;BME280;48772;55.586;37.730;2023-07-31T01:35:19;98485.13;;;16.62;100.00
62712;BME280;48772;55.586;37.730;2023-07-31T01:37:45;98459.25;;;16.47;100.00
62712;BME280;48772;55.586;37.730;2023-07-31T01:40:11;98493.00;;;16.64;100.00
62712;BME280;48772;55.586;37.730;2023-07-31T01:42:38;98423.25;;;16.18;100.00
62712;BME280;48772;55.586;37.730;2023-07-31T01:45:04;98469.28;;;16.53;100.00
62712;BME280;48772;55.586;37.730;2023-07-31T01:47:31;98401.84;;;16.25;100.00
62712;BME280;48772;55.586;37.730;2023-07-31T01:49:57;98501.88;;;16.79;100.00
62712;BME280;48772;55.586;37.730;2023-07-31T01:52:23;98462.84;;;16.54;100.00
62712;BME280;48772;55.586;37.730;2023-07-31T01:54:49;98480.94;;;16.60;100.00
62712;BME280;48772;55.586;37.730;2023-07-31T01:57:15;98402.03;;;16.09;100.00
62712;BME280;48772;55.586;37.730;2023-07-31T01:59:44;98401.03;;;16.10;100.00
62712;BME280;48772;55.586;37.730;2023-07-31T02:02:39;98441.72;;;16.36;100.00
62712;BME280;48772;55.586;37.730;2023-07-31T02:05:09;98496.97;;;16.68;100.00
62712;BME280;48772;55.586;37.730;2023-07-31T02:07:37;98466.94;;;16.50;100.00
62712;BME280;48772;55.586;37.730;2023-07-31T02:10:17;98421.41;;;16.19;100.00
62712;BME280;48772;55.586;37.730;2023-07-31T02:12:58;98420.88;;;16.23;100.00
62712;BME280;48772;55.586;37.730;2023-07-31T02:15:37;98503.47;;;16.73;100.00
62712;BME280;48772;55.586;37.730;2023-07-31T02:18:04;98425.47;;;16.29;100.00
62712;BME280;48772;55.586;37.730;2023-07-31T02:21:01;98501.69;;;16.80;100.00
62712;BME280;48772;55.586;37.730;2023-07-31T02:23:39;98407.22;;;16.25;100.00
62712;BME280;48772;55.586;37.730;2023-07-31T02:26:36;98506.09;;;16.88;100.00
62712;BME280;48772;55.586;37.730;2023-07-31T02:29:17;98469.56;;;16.79;100.00
62712;BME280;48772;55.586;37.730;2023-07-31T02:31:47;98475.84;;;16.86;100.00
62712;BME280;48772;55.586;37.730;2023-07-31T02:34:26;98501.31;;;17.04;100.00
62712;BME280;48772;55.586;37.730;2023-07-31T02:37:07;98450.44;;;16.74;100.00
62712;BME280;48772;55.586;37.730;2023-07-31T02:49:11;98467.31;;;17.03;100.00
62712;BME280;48772;55.586;37.730;2023-07-31T02:52:03;98417.63;;;16.64;100.00
62712;BME280;48772;55.586;37.730;2023-07-31T02:55:01;98474.97;;;17.00;100.00
62712;BME280;48772;55.586;37.730;2023-07-31T02:57:35;98469.19;;;17.03;100.00
62712;BME280;48772;55.586;37.730;2023-07-31T03:00:01;98473.16;;;17.07;100.00
62712;BME280;48772;55.586;37.730;2023-07-31T03:02:34;98482.72;;;17.09;100.00
62712;BME280;48772;55.586;37.730;2023-07-31T03:05:08;98464.31;;;17.13;100.00
62712;BME280;48772;55.586;37.730;2023-07-31T03:07:35;98419.19;;;16.94;100.00
62712;BME280;48772;55.586;37.730;2023-07-31T03:10:02;98426.59;;;17.13;100.00
62712;BME280;48772;55.586;37.730;2023-07-31T03:12:29;98443.13;;;17.31;100.00
62712;BME280;48772;55.586;37.730;2023-07-31T03:14:55;98502.19;;;17.74;100.00
62712;BME280;48772;55.586;37.730;2023-07-31T03:17:21;98474.34;;;17.67;100.00
62712;BME280;48772;55.586;37.730;2023-07-31T03:19:53;98419.84;;;17.44;100.00
62712;BME280;48772;55.586;37.730;2023-07-31T03:22:21;98500.50;;;18.01;100.00
62712;BME280;48772;55.586;37.730;2023-07-31T03:25:15;98493.53;;;18.13;100.00
62712;BME280;48772;55.586;37.730;2023-07-31T03:27:42;98492.34;;;18.22;100.00
62712;BME280;48772;55.586;37.730;2023-07-31T03:30:08;98482.63;;;18.34;100.00
62712;BME280;48772;55.586;37.730;2023-07-31T03:32:34;98412.53;;;18.00;100.00
62712;BME280;48772;55.586;37.730;2023-07-31T03:35:01;98416.97;;;18.14;100.00
62712;BME280;48772;55.586;37.730;2023-07-31T03:37:30;98471.31;;;18.45;100.00
62712;BME280;48772;55.586;37.730;2023-07-31T03:39:56;98455.94;;;18.39;100.00
62712;BME280;48772;55.586;37.730;2023-07-31T03:42:48;98490.88;;;18.60;100.00
62712;BME280;48772;55.586;37.730;2023-07-31T03:45:15;98469.66;;;18.44;100.00
62712;BME280;48772;55.586;37.730;2023-07-31T03:47:41;98405.78;;;18.17;100.00
62712;BME280;48772;55.586;37.730;2023-07-31T03:50:08;98438.50;;;18.48;100.00
62712;BME280;48772;55.586;37.730;2023-07-31T03:56:47;98490.63;;;19.08;100.00
62712;BME280;48772;55.586;37.730;2023-07-31T03:59:14;98488.16;;;19.20;100.00
62712;BME280;48772;55.586;37.730;2023-07-31T04:05:45;98485.28;;;19.41;100.00
62712;BME280;48772;55.586;37.730;2023-07-31T04:08:12;98485.28;;;19.41;100.00
62712;BME280;48772;55.586;37.730;2023-07-31T04:10:39;98468.25;;;19.34;100.00
62712;BME280;48772;55.586;37.730;2023-07-31T04:13:07;98493.63;;;19.59;100.00
62712;BME280;48772;55.586;37.730;2023-07-31T04:15:33;98429.31;;;19.22;100.00
62712;BME280;48772;55.586;37.730;2023-07-31T04:17:59;98496.13;;;19.74;100.00
62712;BME280;48772;55.586;37.730;2023-07-31T04:20:25;98449.94;;;19.49;100.00
62712;BME280;48772;55.586;37.730;2023-07-31T04:22:54;98467.41;;;19.66;100.00
62712;BME280;48772;55.586;37.730;2023-07-31T04:25:24;98496.31;;;19.85;100.00
62712;BME280;48772;55.586;37.730;2023-07-31T04:27:50;98485.28;;;19.87;100.00
62712;BME280;48772;55.586;37.730;2023-07-31T04:30:16;98425.81;;;19.54;100.00
62712;BME280;48772;55.586;37.730;2023-07-31T04:32:42;98419.13;;;19.63;100.00
62712;BME280;48772;55.586;37.730;2023-07-31T04:35:08;98489.63;;;20.20;100.00
62712;BME280;48772;55.586;37.730;2023-07-31T04:37:34;98487.94;;;20.26;100.00
62712;BME280;48772;55.586;37.730;2023-07-31T04:40:01;98411.19;;;19.88;100.00
62712;BME280;48772;55.586;37.730;2023-07-31T04:42:29;98464.84;;;20.23;100.00
62712;BME280;48772;55.586;37.730;2023-07-31T04:44:55;98452.72;;;20.32;100.00
62712;BME280;48772;55.586;37.730;2023-07-31T04:47:21;98497.81;;;20.64;100.00
62712;BME280;48772;55.586;37.730;2023-07-31T04:49:47;98413.63;;;20.22;100.00
62712;BME280;48772;55.586;37.730;2023-07-31T04:52:13;98434.13;;;20.49;100.00
62712;BME280;48772;55.586;37.730;2023-07-31T04:54:40;98493.75;;;20.86;100.00
62712;BME280;48772;55.586;37.730;2023-07-31T04:57:06;98500.63;;;20.95;100.00
62712;BME280;48772;55.586;37.730;2023-07-31T04:59:32;98450.03;;;20.76;100.00
62712;BME280;48772;55.586;37.730;2023-07-31T05:01:59;98408.59;;;20.69;100.00
62712;BME280;48772;55.586;37.730;2023-07-31T05:04:25;98461.59;;;21.03;100.00
62712;BME280;48772;55.586;37.730;2023-07-31T05:06:51;98426.28;;;20.78;100.00
62712;BME280;48772;55.586;37.730;2023-07-31T05:09:17;98440.75;;;21.03;100.00
62712;BME280;48772;55.586;37.730;2023-07-31T05:11:43;98422.38;;;21.05;100.00
62712;BME280;48772;55.586;37.730;2023-07-31T05:14:09;98427.69;;;21.18;100.00
62712;BME280;48772;55.586;37.730;2023-07-31T05:16:35;98399.41;;;21.08;100.00
62712;BME280;48772;55.586;37.730;2023-07-31T05:19:02;98464.97;;;21.54;100.00
62712;BME280;48772;55.586;37.730;2023-07-31T05:21:28;98462.75;;;21.69;100.00
62712;BME280;48772;55.586;37.730;2023-07-31T05:23:54;98477.53;;;21.79;100.00
62712;BME280;48772;55.586;37.730;2023-07-31T05:26:20;98439.97;;;21.76;100.00
62712;BME280;48772;55.586;37.730;2023-07-31T05:28:46;98471.09;;;21.98;100.00
62712;BME280;48772;55.586;37.730;2023-07-31T05:31:12;98482.13;;;22.21;100.00
62712;BME280;48772;55.586;37.730;2023-07-31T05:33:38;98485.16;;;22.31;100.00
62712;BME280;48772;55.586;37.730;2023-07-31T05:36:04;98481.59;;;22.31;100.00
62712;BME280;48772;55.586;37.730;2023-07-31T05:38:31;98476.00;;;22.26;100.00
62712;BME280;48772;55.586;37.730;2023-07-31T05:40:58;98441.81;;;22.18;100.00
62712;BME280;48772;55.586;37.730;2023-07-31T05:43:24;98449.66;;;22.26;100.00
62712;BME280;48772;55.586;37.730;2023-07-31T05:45:50;98500.72;;;22.61;100.00
62712;BME280;48772;55.586;37.730;2023-07-31T05:48:17;98492.25;;;22.69;100.00
62712;BME280;48772;55.586;37.730;2023-07-31T05:50:44;98464.16;;;22.75;100.00
62712;BME280;48772;55.586;37.730;2023-07-31T05:53:10;98419.66;;;22.58;100.00
62712;BME280;48772;55.586;37.730;2023-07-31T05:55:36;98443.53;;;22.85;100.00
62712;BME280;48772;55.586;37.730;2023-07-31T05:58:02;98452.19;;;22.94;100.00
62712;BME280;48772;55.586;37.730;2023-07-31T06:00:28;98491.47;;;22.98;100.00
62712;BME280;48772;55.586;37.730;2023-07-31T06:02:54;98471.97;;;23.01;100.00
62712;BME280;48772;55.586;37.730;2023-07-31T06:05:20;98434.47;;;23.03;100.00
62712;BME280;48772;55.586;37.730;2023-07-31T06:07:46;98487.88;;;23.45;100.00
62712;BME280;48772;55.586;37.730;2023-07-31T06:10:12;98483.28;;;23.57;100.00
62712;BME280;48772;55.586;37.730;2023-07-31T06:12:39;98465.16;;;23.51;100.00
62712;BME280;48772;55.586;37.730;2023-07-31T06:15:05;98454.75;;;23.59;100.00
62712;BME280;48772;55.586;37.730;2023-07-31T06:17:32;98485.56;;;23.83;100.00
62712;BME280;48772;55.586;37.730;2023-07-31T06:19:58;98498.09;;;23.84;100.00
62712;BME280;48772;55.586;37.730;2023-07-31T06:22:24;98487.22;;;23.72;100.00
62712;BME280;48772;55.586;37.730;2023-07-31T06:24:50;98480.97;;;23.83;100.00
62712;BME280;48772;55.586;37.730;2023-07-31T06:27:16;98487.13;;;23.90;100.00
62712;BME280;48772;55.586;37.730;2023-07-31T06:29:42;98439.72;;;23.57;100.00
62712;BME280;48772;55.586;37.730;2023-07-31T06:32:08;98453.94;;;23.70;100.00
62712;BME280;48772;55.586;37.730;2023-07-31T06:34:34;98468.16;;;23.84;100.00
62712;BME280;48772;55.586;37.730;2023-07-31T06:37:00;98490.00;;;24.07;100.00
62712;BME280;48772;55.586;37.730;2023-07-31T06:39:27;98489.97;;;24.18;100.00
62712;BME280;48772;55.586;37.730;2023-07-31T06:41:53;98471.84;;;24.24;100.00
62712;BME280;48772;55.586;37.730;2023-07-31T06:44:20;98484.53;;;24.41;100.00
62712;BME280;48772;55.586;37.730;2023-07-31T06:46:54;98481.09;;;24.34;100.00
62712;BME280;48772;55.586;37.730;2023-07-31T06:49:20;98450.75;;;24.19;100.00
62712;BME280;48772;55.586;37.730;2023-07-31T06:51:46;98489.00;;;24.59;100.00
62712;BME280;48772;55.586;37.730;2023-07-31T06:54:12;98495.09;;;24.89;100.00
62712;BME280;48772;55.586;37.730;2023-07-31T06:56:38;98453.03;;;24.85;100.00
62712;BME280;48772;55.586;37.730;2023-07-31T06:59:04;98465.25;;;25.10;100.00
62712;BME280;48772;55.586;37.730;2023-07-31T07:01:30;98454.59;;;25.25;100.00
62712;BME280;48772;55.586;37.730;2023-07-31T07:03:56;98487.28;;;25.49;100.00
62712;BME280;48772;55.586;37.730;2023-07-31T07:06:22;98485.38;;;25.21;100.00
62712;BME280;48772;55.586;37.730;2023-07-31T07:08:48;98459.31;;;24.85;100.00
62712;BME280;48772;55.586;37.730;2023-07-31T07:11:14;98461.53;;;24.88;100.00
62712;BME280;48772;55.586;37.730;2023-07-31T07:13:41;98485.81;;;25.01;100.00
62712;BME280;48772;55.586;37.730;2023-07-31T07:16:07;98460.63;;;25.11;100.00
62712;BME280;48772;55.586;37.730;2023-07-31T07:18:36;98462.47;;;25.50;100.00
62712;BME280;48772;55.586;37.730;2023-07-31T07:21:03;98430.19;;;25.47;100.00
62712;BME280;48772;55.586;37.730;2023-07-31T07:23:33;98433.84;;;25.69;100.00
62712;BME280;48772;55.586;37.730;2023-07-31T07:26:27;98498.28;;;26.36;100.00
62712;BME280;48772;55.586;37.730;2023-07-31T07:29:35;98481.50;;;26.11;100.00
62712;BME280;48772;55.586;37.730;2023-07-31T07:32:09;98478.94;;;26.21;100.00
62712;BME280;48772;55.586;37.730;2023-07-31T07:34:44;98497.47;;;26.36;100.00
62712;BME280;48772;55.586;37.730;2023-07-31T07:37:13;98479.28;;;26.25;100.00
62712;BME280;48772;55.586;37.730;2023-07-31T07:39:41;98476.84;;;26.28;100.00
62712;BME280;48772;55.586;37.730;2023-07-31T07:42:11;98474.13;;;26.28;100.00
62712;BME280;48772;55.586;37.730;2023-07-31T07:44:37;98483.53;;;26.37;100.00
62712;BME280;48772;55.586;37.730;2023-07-31T07:47:04;98450.00;;;26.25;100.00
62712;BME280;48772;55.586;37.730;2023-07-31T07:49:35;98492.91;;;26.41;100.00
62712;BME280;48772;55.586;37.730;2023-07-31T07:52:12;98477.34;;;26.25;100.00
62712;BME280;48772;55.586;37.730;2023-07-31T07:54:41;98438.13;;;25.82;100.00
62712;BME280;48772;55.586;37.730;2023-07-31T07:57:07;98512.88;;;26.25;100.00
62712;BME280;48772;55.586;37.730;2023-07-31T07:59:44;98437.38;;;26.19;100.00
62712;BME280;48772;55.586;37.730;2023-07-31T08:02:37;98457.41;;;26.46;100.00
62712;BME280;48772;55.586;37.730;2023-07-31T08:05:16;98485.69;;;26.73;100.00
62712;BME280;48772;55.586;37.730;2023-07-31T08:07:45;98444.09;;;26.33;100.00
62712;BME280;48772;55.586;37.730;2023-07-31T08:10:16;98504.78;;;26.68;100.00
62712;BME280;48772;55.586;37.730;2023-07-31T08:12:42;98484.91;;;26.99;100.00
62712;BME280;48772;55.586;37.730;2023-07-31T08:15:08;98514.19;;;27.42;100.00
62712;BME280;48772;55.586;37.730;2023-07-31T08:17:34;98508.50;;;27.48;100.00
62712;BME280;48772;55.586;37.730;2023-07-31T08:20:00;98510.78;;;27.56;100.00
62712;BME280;48772;55.586;37.730;2023-07-31T08:22:26;98511.38;;;27.37;100.00
62712;BME280;48772;55.586;37.730;2023-07-31T08:24:52;98501.47;;;27.57;100.00
62712;BME280;48772;55.586;37.730;2023-07-31T08:27:18;98482.72;;;28.02;100.00
62712;BME280;48772;55.586;37.730;2023-07-31T08:29:44;98506.75;;;28.27;100.00
62712;BME280;48772;55.586;37.730;2023-07-31T08:32:10;98492.56;;;27.72;95.13
62712;BME280;48772;55.586;37.730;2023-07-31T08:34:35;98502.72;;;27.76;95.42
62712;BME280;48772;55.586;37.730;2023-07-31T08:37:01;98511.66;;;27.88;89.04
62712;BME280;48772;55.586;37.730;2023-07-31T08:39:28;98479.56;;;27.89;86.83
62712;BME280;48772;55.586;37.730;2023-07-31T08:41:58;98488.75;;;28.04;80.53
62712;BME280;48772;55.586;37.730;2023-07-31T08:44:25;98510.88;;;28.34;80.62
62712;BME280;48772;55.586;37.730;2023-07-31T08:46:54;98471.59;;;28.24;81.18
62712;BME280;48772;55.586;37.730;2023-07-31T08:49:21;98498.00;;;27.98;90.72
62712;BME280;48772;55.586;37.730;2023-07-31T08:51:50;98517.72;;;28.32;93.74
62712;BME280;48772;55.586;37.730;2023-07-31T08:54:16;98488.50;;;28.43;87.85
62712;BME280;48772;55.586;37.730;2023-07-31T08:56:43;98519.34;;;28.65;82.75
62712;BME280;48772;55.586;37.730;2023-07-31T08:59:09;98509.06;;;28.97;84.52
62712;BME280;48772;55.586;37.730;2023-07-31T09:01:43;98501.22;;;28.64;84.87
62712;BME280;48772;55.586;37.730;2023-07-31T09:04:11;98478.13;;;28.18;98.10
62712;BME280;48772;55.586;37.730;2023-07-31T09:06:39;98508.19;;;27.76;96.69
62712;BME280;48772;55.586;37.730;2023-07-31T09:09:12;98488.50;;;27.48;91.50
62712;BME280;48772;55.586;37.730;2023-07-31T09:11:38;98483.25;;;28.04;89.96
62712;BME280;48772;55.586;37.730;2023-07-31T09:14:06;98516.47;;;28.45;82.61
62712;BME280;48772;55.586;37.730;2023-07-31T09:16:34;98467.13;;;28.50;80.54
62712;BME280;48772;55.586;37.730;2023-07-31T09:19:01;98496.84;;;29.29;86.46
62712;BME280;48772;55.586;37.730;2023-07-31T09:21:49;98505.19;;;29.64;77.77
62712;BME280;48772;55.586;37.730;2023-07-31T09:24:26;98466.66;;;29.34;79.81
62712;BME280;48772;55.586;37.730;2023-07-31T09:26:54;98438.34;;;29.24;78.05
62712;BME280;48772;55.586;37.730;2023-07-31T09:29:32;98481.19;;;29.20;71.01
62712;BME280;48772;55.586;37.730;2023-07-31T09:32:01;98451.63;;;28.75;67.30
62712;BME280;48772;55.586;37.730;2023-07-31T09:34:37;98467.38;;;29.05;69.72
62712;BME280;48772;55.586;37.730;2023-07-31T09:37:06;98471.53;;;29.12;68.29
62712;BME280;48772;55.586;37.730;2023-07-31T09:39:32;98437.25;;;29.25;67.82
62712;BME280;48772;55.586;37.730;2023-07-31T09:41:59;98456.97;;;29.07;67.92
62712;BME280;48772;55.586;37.730;2023-07-31T09:44:43;98457.81;;;28.51;75.93
62712;BME280;48772;55.586;37.730;2023-07-31T09:47:23;98433.94;;;28.51;78.25
62712;BME280;48772;55.586;37.730;2023-07-31T09:49:52;98507.50;;;29.11;78.87
62712;BME280;48772;55.586;37.730;2023-07-31T09:52:19;98471.94;;;28.84;75.30
62712;BME280;48772;55.586;37.730;2023-07-31T09:54:45;98489.63;;;28.15;80.96
62712;BME280;48772;55.586;37.730;2023-07-31T09:57:11;98489.63;;;28.47;79.38
62712;BME280;48772;55.586;37.730;2023-07-31T09:59:40;98494.03;;;28.16;85.51
62712;BME280;48772;55.586;37.730;2023-07-31T10:02:09;98495.84;;;27.74;92.35
62712;BME280;48772;55.586;37.730;2023-07-31T10:04:41;98447.53;;;26.83;94.57
62712;BME280;48772;55.586;37.730;2023-07-31T10:07:08;98497.38;;;28.23;94.64
62712;BME280;48772;55.586;37.730;2023-07-31T10:09:35;98480.13;;;27.86;94.20
62712;BME280;48772;55.586;37.730;2023-07-31T10:12:02;98486.81;;;27.73;94.65
62712;BME280;48772;55.586;37.730;2023-07-31T10:14:31;98502.13;;;27.69;92.57
62712;BME280;48772;55.586;37.730;2023-07-31T10:16:58;98507.28;;;27.66;99.50
62712;BME280;48772;55.586;37.730;2023-07-31T10:19:26;98498.31;;;27.70;100.00
62712;BME280;48772;55.586;37.730;2023-07-31T10:21:53;98494.69;;;27.38;100.00
62712;BME280;48772;55.586;37.730;2023-07-31T10:24:19;98513.91;;;27.43;98.09
62712;BME280;48772;55.586;37.730;2023-07-31T10:26:46;98505.09;;;27.36;96.07
62712;BME280;48772;55.586;37.730;2023-07-31T10:29:15;98507.28;;;27.39;96.93
62712;BME280;48772;55.586;37.730;2023-07-31T10:31:43;98503.44;;;27.14;99.56
62712;BME280;48772;55.586;37.730;2023-07-31T10:34:10;98502.94;;;26.95;100.00
62712;BME280;48772;55.586;37.730;2023-07-31T10:36:35;98508.16;;;26.97;100.00
62712;BME280;48772;55.586;37.730;2023-07-31T10:39:03;98503.66;;;27.07;100.00
62712;BME280;48772;55.586;37.730;2023-07-31T10:41:30;98486.38;;;27.07;100.00
62712;BME280;48772;55.586;37.730;2023-07-31T10:44:02;98495.22;;;27.14;100.00
62712;BME280;48772;55.586;37.730;2023-07-31T10:46:28;98511.78;;;27.50;100.00
62712;BME280;48772;55.586;37.730;2023-07-31T10:48:59;98490.63;;;28.36;98.01
62712;BME280;48772;55.586;37.730;2023-07-31T10:51:33;98508.03;;;29.08;100.00
62712;BME280;48772;55.586;37.730;2023-07-31T10:54:16;98504.69;;;29.01;94.81
62712;BME280;48772;55.586;37.730;2023-07-31T10:56:50;98505.41;;;28.34;91.67
62712;BME280;48772;55.586;37.730;2023-07-31T10:59:16;98497.19;;;27.40;97.61
62712;BME280;48772;55.586;37.730;2023-07-31T11:01:50;98506.63;;;27.27;97.10
62712;BME280;48772;55.586;37.730;2023-07-31T11:04:21;98512.88;;;27.01;100.00
62712;BME280;48772;55.586;37.730;2023-07-31T11:06:59;98492.13;;;26.84;100.00
62712;BME280;48772;55.586;37.730;2023-07-31T11:09:29;98502.03;;;26.90;100.00
62712;BME280;48772;55.586;37.730;2023-07-31T11:11:56;98506.63;;;27.06;100.00
62712;BME280;48772;55.586;37.730;2023-07-31T11:14:22;98498.16;;;27.29;100.00
62712;BME280;48772;55.586;37.730;2023-07-31T11:16:51;98488.25;;;27.81;99.93
62712;BME280;48772;55.586;37.730;2023-07-31T11:19:24;98496.56;;;28.22;100.00
62712;BME280;48772;55.586;37.730;2023-07-31T11:21:52;98477.97;;;28.34;99.65
62712;BME280;48772;55.586;37.730;2023-07-31T11:24:22;98466.59;;;28.53;90.82
62712;BME280;48772;55.586;37.730;2023-07-31T11:26:52;98473.91;;;28.42;94.85
62712;BME280;48772;55.586;37.730;2023-07-31T11:29:20;98507.91;;;27.99;96.94
62712;BME280;48772;55.586;37.730;2023-07-31T11:31:47;98519.97;;;27.45;98.47
62712;BME280;48772;55.586;37.730;2023-07-31T11:34:14;98510.91;;;27.18;100.00
62712;BME280;48772;55.586;37.730;2023-07-31T11:36:40;98512.88;;;27.01;100.00
62712;BME280;48772;55.586;37.730;2023-07-31T11:39:10;98496.50;;;27.06;100.00
62712;BME280;48772;55.586;37.730;2023-07-31T11:41:40;98505.13;;;26.93;100.00
62712;BME280;48772;55.586;37.730;2023-07-31T11:44:06;98515.56;;;26.96;100.00
62712;BME280;48772;55.586;37.730;2023-07-31T11:46:32;98500.09;;;26.85;100.00
62712;BME280;48772;55.586;37.730;2023-07-31T11:48:59;98503.59;;;26.81;100.00
62712;BME280;48772;55.586;37.730;2023-07-31T11:51:26;98514.78;;;26.79;100.00
62712;BME280;48772;55.586;37.730;2023-07-31T11:53:57;98472.59;;;26.75;100.00
62712;BME280;48772;55.586;37.730;2023-07-31T11:56:24;98498.97;;;27.08;100.00
62712;BME280;48772;55.586;37.730;2023-07-31T11:58:59;98497.19;;;27.40;100.00
62712;BME280;48772;55.586;37.730;2023-07-31T12:01:26;98482.91;;;27.38;100.00
62712;BME280;48772;55.586;37.730;2023-07-31T12:03:53;98511.00;;;27.81;100.00
62712;BME280;48772;55.586;37.730;2023-07-31T12:06:20;98509.38;;;27.80;100.00
62712;BME280;48772;55.586;37.730;2023-07-31T12:08:47;98511.31;;;28.16;100.00
62712;BME280;48772;55.586;37.730;2023-07-31T12:11:13;98495.72;;;27.85;100.00
62712;BME280;48772;55.586;37.730;2023-07-31T12:13:41;98511.81;;;28.08;100.00
62712;BME280;48772;55.586;37.730;2023-07-31T12:16:07;98510.69;;;28.04;100.00
62712;BME280;48772;55.586;37.730;2023-07-31T12:18:35;98513.09;;;28.38;100.00
62712;BME280;48772;55.586;37.730;2023-07-31T12:21:04;98509.97;;;28.56;100.00
62712;BME280;48772;55.586;37.730;2023-07-31T12:23:31;98492.72;;;28.60;100.00
62712;BME280;48772;55.586;37.730;2023-07-31T12:26:10;98484.53;;;28.70;100.00
62712;BME280;48772;55.586;37.730;2023-07-31T12:28:38;98522.75;;;28.87;96.88
62712;BME280;48772;55.586;37.730;2023-07-31T12:31:05;98502.84;;;28.60;95.35
62712;BME280;48772;55.586;37.730;2023-07-31T12:33:33;98505.59;;;28.60;87.37
62712;BME280;48772;55.586;37.730;2023-07-31T12:36:01;98511.81;;;28.45;91.05
62712;BME280;48772;55.586;37.730;2023-07-31T12:38:27;98503.34;;;28.52;93.21
62712;BME280;48772;55.586;37.730;2023-07-31T12:40:53;98518.78;;;28.63;99.08
62712;BME280;48772;55.586;37.730;2023-07-31T12:43:19;98505.34;;;28.24;93.41
62712;BME280;48772;55.586;37.730;2023-07-31T12:45:45;98501.72;;;28.51;97.86
62712;BME280;48772;55.586;37.730;2023-07-31T12:48:13;98517.22;;;28.77;97.60
62712;BME280;48772;55.586;37.730;2023-07-31T12:50:39;98516.03;;;28.58;93.93
62712;BME280;48772;55.586;37.730;2023-07-31T12:53:05;98517.06;;;28.52;96.21
62712;BME280;48772;55.586;37.730;2023-07-31T12:55:32;98498.47;;;28.59;97.77
62712;BME280;48772;55.586;37.730;2023-07-31T12:58:03;98513.81;;;28.60;97.97
62712;BME280;48772;55.586;37.730;2023-07-31T13:00:29;98498.19;;;28.60;98.17
62712;BME280;48772;55.586;37.730;2023-07-31T13:02:55;98507.22;;;28.61;97.85
62712;BME280;48772;55.586;37.730;2023-07-31T13:05:21;98496.72;;;28.43;97.84
62712;BME280;48772;55.586;37.730;2023-07-31T13:07:48;98516.09;;;28.36;97.14
62712;BME280;48772;55.586;37.730;2023-07-31T13:10:14;98524.13;;;27.79;100.00
62712;BME280;48772;55.586;37.730;2023-07-31T13:12:40;98533.16;;;27.48;100.00